Time;durP1;ratioP1;P1;durP2;ratioP2;P2;SDS_P1;SDS_P2;PMS_P1;PMS_P2;Temp;Humidity;BMP_temperature;BMP_pressure;BME280_temperature;BME280_humidity;BME280_pressure;Samples;Min_cycle;Max_cycle;Signal;HPM_P1;HPM_P2
2022/05/09 00:02:15;;;;;;;0.10;0.10;;;9.60;99.90;;;;;;5017487;28;20117;-73
2022/05/09 00:04:40;;;;;;;0.00;0.00;;;9.70;99.90;;;;;;5027405;28;20397;-73
2022/05/09 00:07:06;;;;;;;0.15;0.15;;;9.70;99.90;;;;;;5023118;28;20049;-73
2022/05/09 00:09:32;;;;;;;0.00;0.00;;;9.60;99.90;;;;;;5019120;28;20080;-73
2022/05/09 00:11:58;;;;;;;0.15;0.15;;;9.60;99.90;;;;;;5017880;28;20042;-74
2022/05/09 00:14:24;;;;;;;0.20;0.20;;;9.60;99.90;;;;;;5021538;28;20041;-73
2022/05/09 00:16:51;;;;;;;0.20;0.20;;;9.60;99.90;;;;;;5026417;28;20508;-73
2022/05/09 00:19:20;;;;;;;0.10;0.10;;;9.40;99.90;;;;;;5029062;28;20064;-73
2022/05/09 00:21:47;;;;;;;0.17;0.17;;;9.50;99.90;;;;;;5026918;28;20631;-73
2022/05/09 00:24:15;;;;;;;3.35;1.48;;;9.40;99.90;;;;;;5018258;28;20099;-73
2022/05/09 00:26:41;;;;;;;0.10;0.10;;;9.50;99.90;;;;;;5018535;28;20394;-72
2022/05/09 00:29:09;;;;;;;0.20;0.20;;;9.60;99.90;;;;;;5022526;28;20072;-73
2022/05/09 00:31:35;;;;;;;0.00;0.00;;;9.60;99.90;;;;;;5015908;28;20132;-73
2022/05/09 00:34:00;;;;;;;0.00;0.00;;;9.60;99.90;;;;;;5016452;28;20119;-73
2022/05/09 00:36:26;;;;;;;0.10;0.10;;;9.50;99.90;;;;;;5025704;28;20064;-73
2022/05/09 00:38:52;;;;;;;0.10;0.10;;;9.50;99.90;;;;;;5021553;28;20053;-73
2022/05/09 00:44:19;;;;;;;0.10;0.10;;;9.40;99.90;;;;;;5024227;28;20045;-73
2022/05/09 00:46:47;;;;;;;0.10;0.10;;;9.40;99.90;;;;;;5028593;28;20072;-73
2022/05/09 00:49:21;;;;;;;0.10;0.10;;;9.50;99.90;;;;;;5017378;28;20081;-73
2022/05/09 00:51:58;;;;;;;2.15;1.65;;;9.50;99.90;;;;;;5014105;28;20545;-73
2022/05/09 00:54:26;;;;;;;0.10;0.10;;;9.40;99.90;;;;;;5015364;28;20065;-73
2022/05/09 00:57:01;;;;;;;0.40;0.40;;;9.40;99.90;;;;;;5025597;28;20046;-73
2022/05/09 00:59:31;;;;;;;0.00;0.00;;;9.40;99.90;;;;;;5012796;28;20493;-73
2022/05/09 01:01:57;;;;;;;0.00;0.00;;;9.40;99.90;;;;;;5015840;28;20045;-73
2022/05/09 01:04:26;;;;;;;2.63;0.85;;;9.40;99.90;;;;;;5019803;28;20123;-73
2022/05/09 01:06:54;;;;;;;0.40;0.40;;;9.40;99.90;;;;;;5013098;28;20042;-73
2022/05/09 01:09:19;;;;;;;0.30;0.30;;;9.40;99.90;;;;;;5026193;28;20481;-73
2022/05/09 01:11:46;;;;;;;0.10;0.10;;;9.30;99.90;;;;;;5027241;28;20049;-73
2022/05/09 01:14:20;;;;;;;1.73;0.52;;;9.40;99.90;;;;;;5015373;28;20120;-73
2022/05/09 01:16:48;;;;;;;0.20;0.20;;;9.30;99.90;;;;;;5017639;28;20115;-73
2022/05/09 01:19:26;;;;;;;0.38;0.38;;;9.30;99.90;;;;;;5022348;28;20054;-74
2022/05/09 01:21:52;;;;;;;0.13;0.13;;;9.30;99.90;;;;;;5016967;28;20046;-73
2022/05/09 01:24:20;;;;;;;0.73;0.73;;;9.20;99.90;;;;;;5017811;28;20119;-73
2022/05/09 01:26:47;;;;;;;0.10;0.10;;;9.20;99.90;;;;;;5015269;28;20083;-73
2022/05/09 01:29:42;;;;;;;1.05;0.90;;;9.20;99.90;;;;;;5025054;28;20489;-73
2022/05/09 01:32:11;;;;;;;0.75;0.32;;;9.20;99.90;;;;;;4995437;28;20060;-73
2022/05/09 01:34:41;;;;;;;0.10;0.10;;;9.20;99.90;;;;;;5021090;28;20497;-73
2022/05/09 01:37:09;;;;;;;0.10;0.10;;;9.10;99.90;;;;;;5014740;28;20045;-73
2022/05/09 01:39:36;;;;;;;0.20;0.20;;;9.10;99.90;;;;;;5021229;28;20327;-73
2022/05/09 01:42:06;;;;;;;1.52;1.48;;;9.10;99.90;;;;;;5023445;28;20048;-73
2022/05/09 01:44:32;;;;;;;0.43;0.43;;;9.20;99.90;;;;;;5016382;28;20513;-73
2022/05/09 01:49:42;;;;;;;0.30;0.30;;;9.20;99.90;;;;;;5012757;28;20042;-73
2022/05/09 01:52:10;;;;;;;5.82;1.45;;;9.10;99.90;;;;;;5024124;28;20042;-73
2022/05/09 01:54:36;;;;;;;0.20;0.20;;;9.00;99.90;;;;;;5025513;28;20064;-73
2022/05/09 01:57:02;;;;;;;0.20;0.20;;;9.00;99.90;;;;;;5009118;28;20050;-73
2022/05/09 01:59:29;;;;;;;0.10;0.10;;;9.00;99.90;;;;;;5008527;28;20037;-73
2022/05/09 02:01:59;;;;;;;1.25;0.63;;;8.90;99.90;;;;;;5018338;28;20033;-73
2022/05/09 02:04:26;;;;;;;0.28;0.28;;;8.90;99.90;;;;;;5025558;28;20055;-73
2022/05/09 02:06:52;;;;;;;1.25;1.25;;;9.00;99.90;;;;;;5027135;28;20064;-74
2022/05/09 02:09:18;;;;;;;4.63;1.65;;;9.00;99.90;;;;;;5012961;28;20100;-73
2022/05/09 02:11:44;;;;;;;0.22;0.22;;;8.90;99.90;;;;;;5026068;28;20077;-73
2022/05/09 02:14:10;;;;;;;0.52;0.47;;;8.80;99.90;;;;;;5017395;28;20092;-73
2022/05/09 02:16:37;;;;;;;0.05;0.05;;;8.80;99.90;;;;;;5025696;28;20083;-73
2022/05/09 02:19:04;;;;;;;0.10;0.10;;;8.80;99.90;;;;;;5026226;28;20421;-74
2022/05/09 02:21:30;;;;;;;0.10;0.10;;;8.80;99.90;;;;;;5015104;28;20042;-74
2022/05/09 02:23:56;;;;;;;0.10;0.10;;;8.80;99.90;;;;;;5016337;28;20095;-74
2022/05/09 02:26:24;;;;;;;0.45;0.45;;;8.80;99.90;;;;;;5027096;28;20046;-74
2022/05/09 02:28:50;;;;;;;0.10;0.10;;;8.80;99.90;;;;;;5019566;28;20088;-73
2022/05/09 02:31:16;;;;;;;0.10;0.10;;;8.80;99.90;;;;;;5024806;28;20047;-73
2022/05/09 02:33:42;;;;;;;1.65;1.00;;;8.70;99.90;;;;;;5022776;28;20053;-73
2022/05/09 02:36:08;;;;;;;0.10;0.10;;;8.80;99.90;;;;;;5014898;28;20664;-73
2022/05/09 02:38:35;;;;;;;0.00;0.00;;;8.90;99.90;;;;;;5010391;28;20050;-73
2022/05/09 02:41:01;;;;;;;0.10;0.10;;;8.80;99.90;;;;;;5014784;28;20048;-73
2022/05/09 02:43:27;;;;;;;0.40;0.40;;;8.80;99.90;;;;;;5023333;28;20054;-73
2022/05/09 02:45:53;;;;;;;0.20;0.20;;;8.90;99.90;;;;;;5016635;28;20080;-73
2022/05/09 02:48:18;;;;;;;0.20;0.20;;;8.80;99.90;;;;;;5017987;28;20065;-73
2022/05/09 02:50:44;;;;;;;0.10;0.10;;;8.80;99.90;;;;;;5020467;28;20344;-73
2022/05/09 02:53:10;;;;;;;0.47;0.47;;;8.80;99.90;;;;;;5030833;28;20053;-73
2022/05/09 02:55:39;;;;;;;5.15;1.63;;;8.70;99.90;;;;;;5030466;28;20053;-72
2022/05/09 02:58:05;;;;;;;1.95;0.95;;;8.70;99.90;;;;;;5023941;28;20038;-73
2022/05/09 03:00:31;;;;;;;7.78;0.85;;;8.70;99.90;;;;;;5017051;28;20107;-72
2022/05/09 03:05:44;;;;;;;1.38;1.27;;;8.70;99.90;;;;;;5028470;28;21026;-72
2022/05/09 03:08:12;;;;;;;0.20;0.20;;;8.70;99.90;;;;;;5031338;28;20057;-73
2022/05/09 03:10:38;;;;;;;0.25;0.25;;;8.70;99.90;;;;;;5015521;28;20038;-72
2022/05/09 03:13:06;;;;;;;0.00;0.00;;;8.70;99.90;;;;;;5011664;28;20049;-72
2022/05/09 03:15:35;;;;;;;0.10;0.10;;;8.60;99.90;;;;;;5013568;28;20065;-72
2022/05/09 03:18:02;;;;;;;0.10;0.10;;;8.70;99.90;;;;;;5017699;28;20041;-72
2022/05/09 03:20:28;;;;;;;0.30;0.30;;;8.70;99.90;;;;;;5029600;28;20048;-73
2022/05/09 03:22:53;;;;;;;0.10;0.10;;;8.70;99.90;;;;;;5021958;28;20045;-73
2022/05/09 03:25:19;;;;;;;0.10;0.10;;;8.60;99.90;;;;;;5010493;28;20119;-72
2022/05/09 03:27:44;;;;;;;2.22;2.03;;;8.70;99.90;;;;;;5022534;28;20091;-72
2022/05/09 03:30:12;;;;;;;0.10;0.10;;;8.60;99.90;;;;;;5029109;28;20088;-73
2022/05/09 03:32:39;;;;;;;0.00;0.00;;;8.60;99.90;;;;;;5020173;28;20041;-72
2022/05/09 03:35:08;;;;;;;0.30;0.30;;;8.60;99.90;;;;;;5025492;28;20528;-72
2022/05/09 03:37:35;;;;;;;0.17;0.17;;;8.70;99.90;;;;;;5016969;28;20128;-72
2022/05/09 03:40:00;;;;;;;0.10;0.10;;;8.70;99.90;;;;;;5026302;28;20038;-72
2022/05/09 03:42:26;;;;;;;0.10;0.10;;;8.60;99.90;;;;;;5022708;28;20048;-72
2022/05/09 03:44:52;;;;;;;1.02;1.02;;;8.60;99.90;;;;;;5025953;28;20049;-73
2022/05/09 03:47:17;;;;;;;0.10;0.10;;;8.70;99.90;;;;;;5026568;28;20126;-73
2022/05/09 03:49:43;;;;;;;0.10;0.10;;;8.60;99.90;;;;;;5019029;28;20077;-73
2022/05/09 03:52:09;;;;;;;0.10;0.10;;;8.50;99.90;;;;;;5020664;28;20041;-73
2022/05/09 03:54:35;;;;;;;0.30;0.30;;;8.50;99.90;;;;;;5026101;28;20259;-73
2022/05/09 03:57:00;;;;;;;0.10;0.10;;;8.60;99.90;;;;;;5027639;28;20132;-73
2022/05/09 03:59:26;;;;;;;0.10;0.10;;;8.60;99.90;;;;;;5014702;28;20508;-73
2022/05/09 04:01:52;;;;;;;1.52;1.42;;;8.60;99.90;;;;;;5026111;28;20539;-72
2022/05/09 04:04:17;;;;;;;0.20;0.20;;;8.50;99.90;;;;;;5026930;28;20425;-72
2022/05/09 04:06:43;;;;;;;0.10;0.10;;;8.50;99.90;;;;;;5015947;28;20045;-73
2022/05/09 04:09:08;;;;;;;0.90;0.90;;;8.50;99.90;;;;;;5021238;28;20050;-73
2022/05/09 04:11:35;;;;;;;0.00;0.00;;;8.50;99.90;;;;;;5027685;28;20044;-73
2022/05/09 04:14:00;;;;;;;0.95;0.73;;;8.50;99.90;;;;;;5015132;28;20053;-73
2022/05/09 04:19:11;;;;;;;0.10;0.10;;;8.50;99.90;;;;;;5017884;28;20053;-73
2022/05/09 04:21:37;;;;;;;2.72;0.55;;;8.40;99.90;;;;;;5021049;28;20042;-73
2022/05/09 04:24:02;;;;;;;0.28;0.28;;;8.50;99.90;;;;;;5022088;28;20056;-72
2022/05/09 04:26:31;;;;;;;0.57;0.40;;;8.40;99.90;;;;;;5020318;28;20037;-72
2022/05/09 04:28:57;;;;;;;0.32;0.32;;;8.40;99.90;;;;;;5029257;28;20049;-71
2022/05/09 04:31:23;;;;;;;0.00;0.00;;;8.50;99.90;;;;;;5020584;28;20057;-72
2022/05/09 04:33:49;;;;;;;1.00;0.95;;;8.50;99.90;;;;;;5014067;28;20080;-72
2022/05/09 04:36:15;;;;;;;0.20;0.20;;;8.40;99.90;;;;;;5024806;28;20103;-72
2022/05/09 04:38:43;;;;;;;1.00;0.85;;;8.50;99.90;;;;;;5027197;28;20053;-72
2022/05/09 04:41:10;;;;;;;0.10;0.10;;;8.50;99.90;;;;;;5021630;28;20036;-72
2022/05/09 04:43:36;;;;;;;0.10;0.10;;;8.60;99.90;;;;;;5019385;28;20098;-72
2022/05/09 04:46:04;;;;;;;0.90;0.88;;;8.50;99.90;;;;;;5027445;28;20040;-72
2022/05/09 04:48:30;;;;;;;0.10;0.10;;;8.60;99.90;;;;;;5015554;28;20057;-72
2022/05/09 04:50:56;;;;;;;0.05;0.05;;;8.60;99.90;;;;;;5015282;28;20802;-72
2022/05/09 04:53:23;;;;;;;0.00;0.00;;;8.60;99.90;;;;;;5025021;28;20103;-72
2022/05/09 04:55:49;;;;;;;0.00;0.00;;;8.60;99.90;;;;;;5020893;28;20050;-72
2022/05/09 04:58:17;;;;;;;0.00;0.00;;;8.60;99.90;;;;;;5015523;28;20377;-72
2022/05/09 05:00:43;;;;;;;0.10;0.10;;;8.60;99.90;;;;;;5026108;28;20038;-72
2022/05/09 05:03:09;;;;;;;0.10;0.10;;;8.70;99.90;;;;;;5018658;28;20041;-72
2022/05/09 05:05:35;;;;;;;0.10;0.10;;;8.60;99.90;;;;;;5019672;28;20045;-72
2022/05/09 05:08:01;;;;;;;0.10;0.10;;;8.70;99.90;;;;;;5015763;28;20401;-72
2022/05/09 05:10:28;;;;;;;0.10;0.10;;;8.70;99.90;;;;;;5017836;28;20033;-72
2022/05/09 05:12:54;;;;;;;0.10;0.10;;;8.70;99.90;;;;;;5011192;28;20050;-72
2022/05/09 05:15:19;;;;;;;0.10;0.10;;;8.80;99.90;;;;;;5025232;28;20053;-72
2022/05/09 05:17:45;;;;;;;0.10;0.10;;;8.80;99.90;;;;;;5023856;28;20378;-72
2022/05/09 05:20:14;;;;;;;1.38;1.27;;;8.90;99.90;;;;;;5020463;28;20405;-72
2022/05/09 05:22:42;;;;;;;0.10;0.10;;;8.90;99.90;;;;;;5014210;28;20045;-72
2022/05/09 05:25:10;;;;;;;0.10;0.10;;;9.00;99.90;;;;;;5016275;28;20091;-72
2022/05/09 05:27:36;;;;;;;0.08;0.08;;;9.10;99.90;;;;;;5007707;28;20112;-72
2022/05/09 05:30:03;;;;;;;0.10;0.10;;;9.20;99.90;;;;;;5016605;28;20477;-72
2022/05/09 05:32:34;;;;;;;0.45;0.30;;;9.20;99.90;;;;;;5012093;28;20120;-72
2022/05/09 05:35:00;;;;;;;0.05;0.05;;;9.20;99.90;;;;;;5023996;28;20076;-72
2022/05/09 05:37:26;;;;;;;0.10;0.10;;;9.30;99.90;;;;;;5019117;28;20133;-72
2022/05/09 05:39:52;;;;;;;0.32;0.32;;;9.30;99.90;;;;;;5019583;28;20124;-72
2022/05/09 05:42:18;;;;;;;0.10;0.10;;;9.40;99.90;;;;;;5027086;28;20054;-72
2022/05/09 05:44:45;;;;;;;0.08;0.08;;;9.50;99.90;;;;;;5027759;28;20052;-72
2022/05/09 05:47:13;;;;;;;0.00;0.00;;;9.50;99.90;;;;;;5010709;28;20072;-72
2022/05/09 05:49:40;;;;;;;0.10;0.10;;;9.50;99.90;;;;;;5018913;28;20099;-72
2022/05/09 05:52:07;;;;;;;0.20;0.20;;;9.60;99.90;;;;;;5019088;28;20088;-72
2022/05/09 05:54:36;;;;;;;0.10;0.10;;;9.70;99.90;;;;;;5025482;28;20103;-72
2022/05/09 05:57:03;;;;;;;0.32;0.32;;;9.70;99.90;;;;;;5017239;28;20053;-72
2022/05/09 05:59:29;;;;;;;1.10;0.63;;;9.80;99.90;;;;;;5010701;28;20092;-72
2022/05/09 06:01:55;;;;;;;0.10;0.10;;;9.80;99.90;;;;;;5020295;28;20063;-72
2022/05/09 06:04:20;;;;;;;0.10;0.10;;;9.90;99.90;;;;;;5030523;28;20128;-72
2022/05/09 06:06:46;;;;;;;0.10;0.10;;;9.90;99.90;;;;;;5029856;28;20038;-72
2022/05/09 06:09:12;;;;;;;0.38;0.38;;;10.00;99.90;;;;;;5017859;28;20037;-72
2022/05/09 06:11:39;;;;;;;0.10;0.10;;;10.10;99.90;;;;;;5024943;28;20091;-72
2022/05/09 06:14:07;;;;;;;0.30;0.30;;;10.10;99.90;;;;;;5018424;28;20505;-72
2022/05/09 06:16:33;;;;;;;0.10;0.10;;;10.10;99.90;;;;;;5031444;28;20057;-72
2022/05/09 06:18:59;;;;;;;0.10;0.10;;;10.20;99.90;;;;;;5028805;28;20045;-72
2022/05/09 06:21:25;;;;;;;0.10;0.10;;;10.30;99.90;;;;;;5026921;28;20086;-72
2022/05/09 06:23:50;;;;;;;0.10;0.10;;;10.30;99.90;;;;;;5027022;28;20049;-72
2022/05/09 06:26:21;;;;;;;0.10;0.10;;;10.40;99.90;;;;;;5031962;28;20076;-73
2022/05/09 06:28:46;;;;;;;0.00;0.00;;;10.50;99.90;;;;;;5031538;28;20046;-74
2022/05/09 06:31:12;;;;;;;0.40;0.40;;;10.60;99.90;;;;;;5023166;28;20033;-74
2022/05/09 06:33:37;;;;;;;0.35;0.35;;;10.60;99.90;;;;;;5016765;28;20813;-74
2022/05/09 06:36:04;;;;;;;0.10;0.10;;;10.70;99.90;;;;;;5017808;28;20057;-75
2022/05/09 06:38:30;;;;;;;0.08;0.08;;;10.80;99.90;;;;;;5031045;28;20433;-75
2022/05/09 06:40:56;;;;;;;0.10;0.10;;;10.90;99.90;;;;;;5019591;28;20038;-75
2022/05/09 06:43:23;;;;;;;0.00;0.00;;;11.00;99.90;;;;;;5024292;28;20099;-75
2022/05/09 06:45:52;;;;;;;0.10;0.10;;;11.00;99.90;;;;;;5031241;28;20069;-75
2022/05/09 06:48:18;;;;;;;0.20;0.20;;;11.10;99.90;;;;;;5031609;28;20049;-75
2022/05/09 06:50:44;;;;;;;0.20;0.20;;;11.20;99.90;;;;;;5010110;28;20396;-75
2022/05/09 06:53:11;;;;;;;0.10;0.10;;;11.20;99.90;;;;;;5011924;28;20057;-75
2022/05/09 06:55:37;;;;;;;0.10;0.10;;;11.30;99.90;;;;;;5024765;28;20055;-75
2022/05/09 06:58:11;;;;;;;0.00;0.00;;;11.40;99.90;;;;;;5020282;28;20112;-75
2022/05/09 07:00:37;;;;;;;0.85;0.60;;;11.60;99.90;;;;;;5021548;28;20407;-75
2022/05/09 07:03:04;;;;;;;0.30;0.30;;;11.60;99.90;;;;;;5029888;28;20249;-75
2022/05/09 07:05:30;;;;;;;0.43;0.43;;;11.60;99.90;;;;;;5020078;28;20045;-75
2022/05/09 07:07:55;;;;;;;0.10;0.10;;;11.70;99.90;;;;;;5017156;28;20060;-75
2022/05/09 07:10:21;;;;;;;8.38;0.63;;;11.80;99.90;;;;;;5023907;28;20087;-75
2022/05/09 07:12:49;;;;;;;0.43;0.43;;;11.90;99.90;;;;;;5029203;28;20401;-75
2022/05/09 07:15:18;;;;;;;0.10;0.10;;;12.00;99.90;;;;;;5029775;28;20037;-75
2022/05/09 07:17:45;;;;;;;0.00;0.00;;;12.00;99.90;;;;;;5021903;28;20060;-75
2022/05/09 07:20:11;;;;;;;0.10;0.10;;;12.10;99.90;;;;;;5025711;28;20436;-75
2022/05/09 07:22:37;;;;;;;0.30;0.30;;;12.30;99.90;;;;;;5028001;28;20049;-74
2022/05/09 07:25:03;;;;;;;0.20;0.20;;;12.20;99.90;;;;;;5022190;28;20068;-74
2022/05/09 07:27:30;;;;;;;0.00;0.00;;;12.30;99.90;;;;;;5023685;28;20548;-75
2022/05/09 07:29:56;;;;;;;0.10;0.10;;;12.40;99.90;;;;;;5028806;28;20555;-74
2022/05/09 07:32:21;;;;;;;0.50;0.50;;;12.50;99.90;;;;;;5024576;28;20038;-74
2022/05/09 07:34:49;;;;;;;0.65;0.65;;;12.60;99.90;;;;;;5025218;28;20046;-74
2022/05/09 07:37:15;;;;;;;0.10;0.10;;;12.60;99.90;;;;;;5009442;28;20046;-74
2022/05/09 07:39:41;;;;;;;0.20;0.20;;;12.70;99.90;;;;;;5012265;28;20050;-74
2022/05/09 07:42:08;;;;;;;0.10;0.10;;;12.70;99.90;;;;;;5029149;28;20509;-74
2022/05/09 07:44:34;;;;;;;0.00;0.00;;;12.90;99.90;;;;;;5021192;28;20141;-74
2022/05/09 07:46:59;;;;;;;0.00;0.00;;;12.90;99.90;;;;;;5008978;28;20124;-74
2022/05/09 07:49:25;;;;;;;0.10;0.10;;;13.00;99.90;;;;;;5024974;28;20045;-74
2022/05/09 07:51:50;;;;;;;0.00;0.00;;;13.10;99.90;;;;;;5011839;28;20184;-74
2022/05/09 07:54:16;;;;;;;0.85;0.82;;;13.20;99.90;;;;;;4981300;28;1005669;-74
2022/05/09 07:56:43;;;;;;;0.28;0.28;;;13.20;99.90;;;;;;5015344;28;20117;-73
2022/05/09 07:59:09;;;;;;;0.00;0.00;;;13.30;99.90;;;;;;5027450;28;20045;-73
2022/05/09 08:01:35;;;;;;;0.10;0.10;;;13.40;99.90;;;;;;5012313;28;20087;-73
2022/05/09 08:04:01;;;;;;;0.15;0.15;;;13.50;99.90;;;;;;5024967;28;20419;-73
2022/05/09 08:06:27;;;;;;;0.52;0.52;;;13.50;99.90;;;;;;5027346;28;20045;-74
2022/05/09 08:08:53;;;;;;;0.10;0.10;;;13.50;99.90;;;;;;5021017;28;20121;-73
2022/05/09 08:11:19;;;;;;;0.10;0.10;;;13.70;99.90;;;;;;5010196;28;20129;-74
2022/05/09 08:13:45;;;;;;;0.20;0.20;;;13.70;99.90;;;;;;5013629;28;20045;-74
2022/05/09 08:16:13;;;;;;;0.00;0.00;;;13.80;99.90;;;;;;5009713;28;20406;-73
2022/05/09 08:18:38;;;;;;;0.10;0.10;;;13.90;99.90;;;;;;5021566;28;20042;-73
2022/05/09 08:21:04;;;;;;;0.20;0.20;;;14.10;99.90;;;;;;5011758;28;20092;-73
2022/05/09 08:23:31;;;;;;;0.45;0.45;;;14.10;99.90;;;;;;5006150;28;20100;-73
2022/05/09 08:25:58;;;;;;;0.10;0.10;;;14.10;99.90;;;;;;5017258;28;20080;-73
2022/05/09 08:28:24;;;;;;;0.10;0.10;;;14.10;99.90;;;;;;5023397;28;20049;-73
2022/05/09 08:30:52;;;;;;;1.35;0.70;;;14.20;99.90;;;;;;5028667;28;20041;-73
2022/05/09 08:33:21;;;;;;;0.50;0.50;;;14.30;99.90;;;;;;5018511;28;20302;-73
2022/05/09 08:35:48;;;;;;;0.10;0.10;;;14.50;99.90;;;;;;5007788;28;20045;-72
2022/05/09 08:38:15;;;;;;;0.35;0.35;;;14.60;99.90;;;;;;5015518;28;20513;-72
2022/05/09 08:41:07;;;;;;;0.40;0.40;;;14.70;99.90;;;;;;5029498;28;20099;-72
2022/05/09 08:44:09;;;;;;;1.08;0.68;;;14.70;99.90;;;;;;5014384;28;20050;-72
2022/05/09 08:47:00;;;;;;;0.10;0.10;;;14.90;99.90;;;;;;5015896;28;20069;-73
2022/05/09 08:49:48;;;;;;;0.10;0.10;;;14.80;99.90;;;;;;5008631;28;20044;-72
2022/05/09 08:52:24;;;;;;;0.10;0.10;;;15.00;99.90;;;;;;5017709;28;20037;-72
2022/05/09 08:54:53;;;;;;;0.10;0.10;;;15.20;99.90;;;;;;5019233;28;20049;-72
2022/05/09 08:57:25;;;;;;;4.28;0.85;;;15.20;99.90;;;;;;5028322;28;20049;-72
2022/05/09 09:00:03;;;;;;;0.20;0.20;;;15.40;99.90;;;;;;5029640;28;20045;-72
2022/05/09 09:02:42;;;;;;;0.40;0.40;;;15.40;99.90;;;;;;5025107;28;20132;-72
2022/05/09 09:05:12;;;;;;;0.10;0.10;;;15.50;99.90;;;;;;5023783;28;20057;-73
2022/05/09 09:07:59;;;;;;;0.00;0.00;;;15.80;99.90;;;;;;5028845;28;20037;-73
2022/05/09 09:10:31;;;;;;;0.20;0.20;;;16.40;99.90;;;;;;5013740;28;20057;-72
2022/05/09 09:13:38;;;;;;;0.28;0.28;;;17.20;99.90;;;;;;5022062;28;20124;-73
2022/05/09 09:16:41;;;;;;;0.00;0.00;;;18.00;99.90;;;;;;5024117;28;20737;-73
2022/05/09 09:19:33;;;;;;;0.10;0.10;;;18.40;99.90;;;;;;5010964;28;20061;-73
2022/05/09 09:22:05;;;;;;;0.10;0.10;;;18.60;99.90;;;;;;5009962;28;20041;-72
2022/05/09 09:24:36;;;;;;;0.55;0.55;;;18.50;99.90;;;;;;5028174;28;20041;-73
2022/05/09 09:27:07;;;;;;;11.00;1.08;;;18.20;99.90;;;;;;5024992;28;20046;-73
2022/05/09 09:29:34;;;;;;;4.68;0.43;;;17.90;99.90;;;;;;5008662;28;20520;-73
2022/05/09 09:32:14;;;;;;;0.10;0.10;;;17.70;98.50;;;;;;5023670;28;20046;-73
2022/05/09 09:34:42;;;;;;;0.22;0.22;;;17.70;97.30;;;;;;5026432;28;20049;-74
2022/05/09 09:37:24;;;;;;;0.10;0.10;;;18.10;99.90;;;;;;5027200;28;20041;-74
2022/05/09 09:39:49;;;;;;;0.10;0.10;;;18.50;98.60;;;;;;5008516;28;20125;-74
2022/05/09 09:42:15;;;;;;;0.08;0.08;;;19.00;98.30;;;;;;5013807;28;20172;-74
2022/05/09 09:44:45;;;;;;;0.10;0.10;;;19.60;97.70;;;;;;5008296;28;20076;-73
2022/05/09 09:47:21;;;;;;;0.00;0.00;;;20.00;96.40;;;;;;5011668;28;20038;-74
2022/05/09 09:49:49;;;;;;;0.10;0.10;;;20.20;95.60;;;;;;5020514;28;20053;-75
2022/05/09 09:52:20;;;;;;;0.00;0.00;;;20.50;95.40;;;;;;5019739;28;20068;-76
2022/05/09 09:55:00;;;;;;;0.10;0.10;;;20.60;94.80;;;;;;5007619;28;20429;-76
2022/05/09 09:57:29;;;;;;;0.10;0.10;;;20.70;95.60;;;;;;5025998;28;20050;-75
2022/05/09 09:59:57;;;;;;;8.57;0.98;;;20.60;92.10;;;;;;5026858;28;20033;-75
2022/05/09 10:02:26;;;;;;;0.15;0.15;;;20.40;93.10;;;;;;5012862;28;20505;-75
2022/05/09 10:04:55;;;;;;;0.20;0.20;;;20.80;93.00;;;;;;5008101;28;20049;-75
2022/05/09 10:07:33;;;;;;;0.10;0.10;;;20.60;90.80;;;;;;5011388;28;20076;-75
2022/05/09 10:10:14;;;;;;;0.43;0.43;;;20.80;91.40;;;;;;5007094;28;20053;-74
2022/05/09 10:12:44;;;;;;;0.00;0.00;;;20.70;91.40;;;;;;5020075;28;20057;-74
2022/05/09 10:15:27;;;;;;;0.00;0.00;;;20.80;91.80;;;;;;5016711;28;20076;-74
2022/05/09 10:18:01;;;;;;;6.30;1.40;;;20.90;91.60;;;;;;5017604;28;20058;-75
2022/05/09 10:20:41;;;;;;;0.13;0.13;;;21.00;90.70;;;;;;5008423;28;20057;-74
2022/05/09 10:26:19;;;;;;;0.00;0.00;;;21.20;90.40;;;;;;5025021;28;20065;-74
2022/05/09 10:28:47;;;;;;;1.10;0.80;;;21.00;89.10;;;;;;5026735;28;20088;-74
2022/05/09 10:31:23;;;;;;;1.95;1.45;;;21.10;90.30;;;;;;5025129;28;20044;-74
2022/05/09 10:34:00;;;;;;;0.00;0.00;;;21.30;90.00;;;;;;5021059;28;20045;-74
2022/05/09 10:36:31;;;;;;;1.17;1.08;;;21.40;90.60;;;;;;5008616;28;20046;-74
2022/05/09 10:39:02;;;;;;;0.30;0.30;;;21.30;89.20;;;;;;5023275;28;20489;-74
2022/05/09 10:41:41;;;;;;;0.00;0.00;;;21.50;89.30;;;;;;5007666;28;20046;-74
2022/05/09 10:44:17;;;;;;;1.17;1.08;;;21.40;86.90;;;;;;5016226;28;20057;-73
2022/05/09 10:46:50;;;;;;;0.40;0.40;;;21.50;88.00;;;;;;5022201;28;20562;-74
2022/05/09 10:49:22;;;;;;;;;;;21.40;86.90;;;;;;5028440;28;20088;-74
2022/05/09 10:51:58;;;;;;;0.03;0.03;;;21.40;88.60;;;;;;5031856;28;19975;-74
2022/05/09 10:54:41;;;;;;;0.00;0.00;;;21.50;88.90;;;;;;5017851;28;20058;-73
2022/05/09 10:57:29;;;;;;;0.00;0.00;;;21.50;88.20;;;;;;5011816;28;20054;-74
2022/05/09 11:00:12;;;;;;;0.20;0.20;;;21.80;89.60;;;;;;5012557;28;20037;-73
2022/05/09 11:02:41;;;;;;;0.00;0.00;;;21.70;87.30;;;;;;5015599;28;20569;-73
2022/05/09 11:05:08;;;;;;;0.00;0.00;;;21.40;86.20;;;;;;5028098;28;20044;-73
2022/05/09 11:07:50;;;;;;;0.25;0.25;;;21.60;89.80;;;;;;5027170;28;20054;-73
2022/05/09 11:10:25;;;;;;;2.17;1.77;;;21.60;87.20;;;;;;5021487;28;20203;-72
2022/05/09 11:13:00;;;;;;;0.00;0.00;;;21.50;89.20;;;;;;5021461;28;20401;-73
2022/05/09 11:15:32;;;;;;;0.08;0.08;;;21.70;89.40;;;;;;5023569;28;20125;-73
2022/05/09 11:18:22;;;;;;;0.10;0.10;;;21.70;86.50;;;;;;5020658;28;20102;-73
2022/05/09 11:21:31;;;;;;;1.20;0.50;;;21.90;88.40;;;;;;5015795;28;20525;-73
2022/05/09 11:24:23;;;;;;;0.30;0.28;;;22.00;88.30;;;;;;5021244;28;20095;-73
2022/05/09 11:27:24;;;;;;;0.20;0.20;;;22.20;86.70;;;;;;5022845;28;20069;-73
2022/05/09 11:30:31;;;;;;;0.00;0.00;;;22.20;85.00;;;;;;5022928;28;20049;-73
2022/05/09 11:33:00;;;;;;;0.00;0.00;;;22.30;84.40;;;;;;5024392;28;20061;-73
2022/05/09 11:35:34;;;;;;;0.95;0.77;;;22.60;83.70;;;;;;5029627;28;20045;-73
2022/05/09 11:38:11;;;;;;;0.30;0.30;;;22.30;80.90;;;;;;5019899;28;20065;-73
2022/05/09 11:40:42;;;;;;;0.22;0.22;;;22.50;84.50;;;;;;5010354;28;20283;-73
2022/05/09 11:43:29;;;;;;;2.63;1.50;;;22.90;84.50;;;;;;5021471;28;20498;-73
2022/05/09 11:46:31;;;;;;;0.00;0.00;;;23.10;85.70;;;;;;5012472;28;20045;-73
2022/05/09 11:49:17;;;;;;;0.10;0.10;;;23.30;84.90;;;;;;5011170;28;20057;-73
2022/05/09 11:51:53;;;;;;;0.00;0.00;;;23.00;82.90;;;;;;5009309;28;20132;-74
2022/05/09 11:54:24;;;;;;;15.80;0.52;;;23.30;83.00;;;;;;5010125;28;20045;-74
2022/05/09 11:57:07;;;;;;;0.10;0.10;;;23.50;84.40;;;;;;5016536;28;20046;-74
2022/05/09 11:59:34;;;;;;;0.35;0.35;;;23.30;82.50;;;;;;5022591;28;20075;-74
2022/05/09 12:02:07;;;;;;;0.00;0.00;;;23.60;82.50;;;;;;5015017;28;20085;-73
2022/05/09 12:04:44;;;;;;;0.10;0.10;;;23.60;83.60;;;;;;5013698;28;20045;-72
2022/05/09 12:07:22;;;;;;;0.03;0.03;;;23.70;83.00;;;;;;5009842;28;20089;-72
2022/05/09 12:10:03;;;;;;;0.00;0.00;;;23.50;81.40;;;;;;5010067;28;20054;-72
2022/05/09 12:12:44;;;;;;;0.10;0.10;;;23.40;81.20;;;;;;5028794;28;20095;-71
2022/05/09 12:15:15;;;;;;;0.00;0.00;;;23.50;81.50;;;;;;5024519;28;20428;-71
2022/05/09 12:17:42;;;;;;;0.40;0.40;;;23.60;81.60;;;;;;5025180;28;20485;-71
2022/05/09 12:20:29;;;;;;;0.00;0.00;;;23.30;82.30;;;;;;5029693;28;20049;-71
2022/05/09 12:23:00;;;;;;;0.95;0.25;;;23.70;81.50;;;;;;5019184;28;20073;-71
2022/05/09 12:25:44;;;;;;;1.08;0.95;;;23.80;78.80;;;;;;5009870;28;20113;-70
2022/05/09 12:28:18;;;;;;;3.50;0.85;;;24.00;79.80;;;;;;5009307;28;20046;-70
2022/05/09 12:30:52;;;;;;;0.00;0.00;;;23.80;80.70;;;;;;5008552;28;20070;-71
2022/05/09 12:33:24;;;;;;;0.00;0.00;;;23.70;79.90;;;;;;5012218;28;20054;-71
2022/05/09 12:35:53;;;;;;;0.00;0.00;;;24.10;80.90;;;;;;5009951;28;20048;-70
2022/05/09 12:38:25;;;;;;;0.00;0.00;;;24.70;81.90;;;;;;5017497;28;20045;-70
2022/05/09 12:41:22;;;;;;;0.10;0.10;;;24.50;77.20;;;;;;5009688;28;20137;-70
2022/05/09 12:44:08;;;;;;;0.00;0.00;;;24.60;79.80;;;;;;5026791;28;20057;-71
2022/05/09 12:46:40;;;;;;;0.00;0.00;;;25.00;79.80;;;;;;5009741;28;20653;-71
2022/05/09 12:49:08;;;;;;;0.00;0.00;;;25.00;77.80;;;;;;5009378;28;20092;-70
2022/05/09 12:51:42;;;;;;;0.13;0.13;;;24.80;77.50;;;;;;5009714;28;20045;-70
2022/05/09 12:54:10;;;;;;;0.20;0.20;;;24.70;76.50;;;;;;5008507;28;20050;-70
2022/05/09 12:56:37;;;;;;;0.05;0.05;;;24.70;76.30;;;;;;5023804;28;20649;-70
2022/05/09 12:59:08;;;;;;;0.57;0.20;;;24.90;76.80;;;;;;5009161;28;20120;-71
2022/05/09 13:01:40;;;;;;;0.10;0.10;;;25.10;76.50;;;;;;5009754;28;21268;-71
2022/05/09 13:04:18;;;;;;;1.27;0.70;;;25.00;74.60;;;;;;5017184;28;20426;-71
2022/05/09 13:06:52;;;;;;;0.10;0.10;;;25.00;75.80;;;;;;5009835;28;20458;-71
2022/05/09 13:09:23;;;;;;;0.45;0.22;;;25.30;77.90;;;;;;5009366;28;20073;-71
2022/05/09 13:11:53;;;;;;;0.75;0.10;;;25.10;73.50;;;;;;5017644;28;20045;-71
2022/05/09 13:14:41;;;;;;;0.00;0.00;;;25.10;74.70;;;;;;5027890;28;20049;-70
2022/05/09 13:17:41;;;;;;;4.95;0.15;;;25.30;76.20;;;;;;5023153;28;20072;-70
2022/05/09 13:20:11;;;;;;;1.08;0.73;;;25.10;75.50;;;;;;5027405;28;20520;-70
2022/05/09 13:22:51;;;;;;;0.65;0.20;;;25.10;74.70;;;;;;5025029;28;20056;-70